sensor_id;sensor_type;location;lat;lon;timestamp;temperature;humidity
8595;DHT22;4335;48.860;9.198;2022-09-13T00:01:33;16.40;99.90
8595;DHT22;4335;48.860;9.198;2022-09-13T00:04:00;16.40;99.90
8595;DHT22;4335;48.860;9.198;2022-09-13T00:06:27;16.40;99.90
8595;DHT22;4335;48.860;9.198;2022-09-13T00:08:54;16.40;99.90
8595;DHT22;4335;48.860;9.198;2022-09-13T00:11:23;16.40;99.90
8595;DHT22;4335;48.860;9.198;2022-09-13T00:13:50;16.30;99.90
8595;DHT22;4335;48.860;9.198;2022-09-13T00:16:19;16.30;99.90
8595;DHT22;4335;48.860;9.198;2022-09-13T00:18:45;16.30;99.90
8595;DHT22;4335;48.860;9.198;2022-09-13T00:21:14;16.20;99.90
8595;DHT22;4335;48.860;9.198;2022-09-13T00:23:43;16.30;99.90
8595;DHT22;4335;48.860;9.198;2022-09-13T00:26:12;16.30;99.90
8595;DHT22;4335;48.860;9.198;2022-09-13T00:28:40;16.30;99.90
8595;DHT22;4335;48.860;9.198;2022-09-13T00:31:08;16.30;99.90
8595;DHT22;4335;48.860;9.198;2022-09-13T00:33:36;16.30;99.90
8595;DHT22;4335;48.860;9.198;2022-09-13T00:36:04;16.20;99.90
8595;DHT22;4335;48.860;9.198;2022-09-13T00:38:38;16.20;99.90
8595;DHT22;4335;48.860;9.198;2022-09-13T00:41:06;16.20;99.90
8595;DHT22;4335;48.860;9.198;2022-09-13T00:43:45;16.20;99.90
8595;DHT22;4335;48.860;9.198;2022-09-13T00:46:16;16.10;99.90
8595;DHT22;4335;48.860;9.198;2022-09-13T00:48:48;16.10;99.90
8595;DHT22;4335;48.860;9.198;2022-09-13T00:51:19;16.10;99.90
8595;DHT22;4335;48.860;9.198;2022-09-13T00:53:49;16.10;99.90
8595;DHT22;4335;48.860;9.198;2022-09-13T00:56:20;16.00;99.90
8595;DHT22;4335;48.860;9.198;2022-09-13T00:58:52;16.00;99.90
8595;DHT22;4335;48.860;9.198;2022-09-13T01:01:22;16.00;99.90
8595;DHT22;4335;48.860;9.198;2022-09-13T01:03:54;16.00;99.90
8595;DHT22;4335;48.860;9.198;2022-09-13T01:06:26;16.00;99.90
8595;DHT22;4335;48.860;9.198;2022-09-13T01:08:55;16.00;99.90
8595;DHT22;4335;48.860;9.198;2022-09-13T01:11:40;15.90;99.90
8595;DHT22;4335;48.860;9.198;2022-09-13T01:14:11;15.90;99.90
8595;DHT22;4335;48.860;9.198;2022-09-13T01:16:38;15.90;99.90
8595;DHT22;4335;48.860;9.198;2022-09-13T01:19:05;15.90;99.90
8595;DHT22;4335;48.860;9.198;2022-09-13T01:22:09;15.90;99.90
8595;DHT22;4335;48.860;9.198;2022-09-13T01:30:56;15.80;99.90
8595;DHT22;4335;48.860;9.198;2022-09-13T01:33:41;15.80;99.90
8595;DHT22;4335;48.860;9.198;2022-09-13T01:39:13;15.70;99.90
8595;DHT22;4335;48.860;9.198;2022-09-13T01:42:03;15.70;99.90
8595;DHT22;4335;48.860;9.198;2022-09-13T01:44:44;15.60;99.90
8595;DHT22;4335;48.860;9.198;2022-09-13T01:47:23;15.60;99.90
8595;DHT22;4335;48.860;9.198;2022-09-13T01:50:03;15.60;99.90
8595;DHT22;4335;48.860;9.198;2022-09-13T01:52:37;15.60;99.90
8595;DHT22;4335;48.860;9.198;2022-09-13T01:55:13;15.50;99.90
8595;DHT22;4335;48.860;9.198;2022-09-13T01:57:50;15.50;99.90
8595;DHT22;4335;48.860;9.198;2022-09-13T02:00:21;15.50;99.90
8595;DHT22;4335;48.860;9.198;2022-09-13T02:02:55;15.50;99.90
8595;DHT22;4335;48.860;9.198;2022-09-13T02:05:30;15.50;99.90
8595;DHT22;4335;48.860;9.198;2022-09-13T02:08:01;15.50;99.90
8595;DHT22;4335;48.860;9.198;2022-09-13T02:10:33;15.50;99.90
8595;DHT22;4335;48.860;9.198;2022-09-13T02:13:02;15.40;99.90
8595;DHT22;4335;48.860;9.198;2022-09-13T02:15:36;15.40;99.90
8595;DHT22;4335;48.860;9.198;2022-09-13T02:18:08;15.40;99.90
8595;DHT22;4335;48.860;9.198;2022-09-13T02:20:37;15.40;99.90
8595;DHT22;4335;48.860;9.198;2022-09-13T02:23:10;15.40;99.90
8595;DHT22;4335;48.860;9.198;2022-09-13T02:25:39;15.40;99.90
8595;DHT22;4335;48.860;9.198;2022-09-13T02:28:08;15.40;99.90
8595;DHT22;4335;48.860;9.198;2022-09-13T02:30:39;15.30;99.90
8595;DHT22;4335;48.860;9.198;2022-09-13T02:33:10;15.30;99.90
8595;DHT22;4335;48.860;9.198;2022-09-13T02:35:45;15.30;99.90
8595;DHT22;4335;48.860;9.198;2022-09-13T02:38:18;15.20;99.90
8595;DHT22;4335;48.860;9.198;2022-09-13T02:40:52;15.20;99.90
8595;DHT22;4335;48.860;9.198;2022-09-13T02:43:27;15.20;99.90
8595;DHT22;4335;48.860;9.198;2022-09-13T02:46:11;15.10;99.90
8595;DHT22;4335;48.860;9.198;2022-09-13T02:48:51;15.10;99.90
8595;DHT22;4335;48.860;9.198;2022-09-13T02:51:28;15.10;99.90
8595;DHT22;4335;48.860;9.198;2022-09-13T02:54:04;15.10;99.90
8595;DHT22;4335;48.860;9.198;2022-09-13T02:56:47;15.10;99.90
8595;DHT22;4335;48.860;9.198;2022-09-13T02:59:18;15.10;99.90
8595;DHT22;4335;48.860;9.198;2022-09-13T03:01:56;15.00;99.90
8595;DHT22;4335;48.860;9.198;2022-09-13T03:04:28;14.90;99.90
8595;DHT22;4335;48.860;9.198;2022-09-13T03:06:57;15.00;99.90
8595;DHT22;4335;48.860;9.198;2022-09-13T03:09:24;15.00;99.90
8595;DHT22;4335;48.860;9.198;2022-09-13T03:12:22;14.90;99.90
8595;DHT22;4335;48.860;9.198;2022-09-13T03:14:59;14.90;99.90
8595;DHT22;4335;48.860;9.198;2022-09-13T03:17:46;14.90;99.90
8595;DHT22;4335;48.860;9.198;2022-09-13T03:20:19;14.90;99.90
8595;DHT22;4335;48.860;9.198;2022-09-13T03:23:14;14.80;99.90
8595;DHT22;4335;48.860;9.198;2022-09-13T03:26:06;14.80;99.90
8595;DHT22;4335;48.860;9.198;2022-09-13T03:28:38;14.80;99.90
8595;DHT22;4335;48.860;9.198;2022-09-13T03:31:13;14.70;99.90
8595;DHT22;4335;48.860;9.198;2022-09-13T03:33:50;14.70;99.90
8595;DHT22;4335;48.860;9.198;2022-09-13T03:36:25;14.70;99.90
8595;DHT22;4335;48.860;9.198;2022-09-13T03:39:07;14.70;99.90
8595;DHT22;4335;48.860;9.198;2022-09-13T03:41:39;14.80;99.90
8595;DHT22;4335;48.860;9.198;2022-09-13T03:44:09;14.70;99.90
8595;DHT22;4335;48.860;9.198;2022-09-13T03:46:41;14.80;99.90
8595;DHT22;4335;48.860;9.198;2022-09-13T03:49:14;14.70;99.90
8595;DHT22;4335;48.860;9.198;2022-09-13T03:51:43;14.70;99.90
8595;DHT22;4335;48.860;9.198;2022-09-13T03:54:15;14.70;99.90
8595;DHT22;4335;48.860;9.198;2022-09-13T03:56:43;14.70;99.90
8595;DHT22;4335;48.860;9.198;2022-09-13T03:59:33;14.70;99.90
8595;DHT22;4335;48.860;9.198;2022-09-13T04:02:01;14.70;99.90
8595;DHT22;4335;48.860;9.198;2022-09-13T04:04:28;14.70;99.90
8595;DHT22;4335;48.860;9.198;2022-09-13T04:06:55;14.70;99.90
8595;DHT22;4335;48.860;9.198;2022-09-13T04:09:22;14.70;99.90
8595;DHT22;4335;48.860;9.198;2022-09-13T04:11:49;14.60;99.90
8595;DHT22;4335;48.860;9.198;2022-09-13T04:14:18;14.70;99.90
8595;DHT22;4335;48.860;9.198;2022-09-13T04:16:52;14.60;99.90
8595;DHT22;4335;48.860;9.198;2022-09-13T04:19:22;14.70;99.90
8595;DHT22;4335;48.860;9.198;2022-09-13T04:21:49;14.60;99.90
8595;DHT22;4335;48.860;9.198;2022-09-13T04:24:17;14.60;99.90
8595;DHT22;4335;48.860;9.198;2022-09-13T04:26:49;14.60;99.90
8595;DHT22;4335;48.860;9.198;2022-09-13T04:29:23;14.70;99.90
8595;DHT22;4335;48.860;9.198;2022-09-13T04:31:51;14.70;99.90
8595;DHT22;4335;48.860;9.198;2022-09-13T04:34:18;14.60;99.90
8595;DHT22;4335;48.860;9.198;2022-09-13T04:36:51;14.60;99.90
8595;DHT22;4335;48.860;9.198;2022-09-13T04:39:19;14.60;99.90
8595;DHT22;4335;48.860;9.198;2022-09-13T04:41:46;14.60;99.90
8595;DHT22;4335;48.860;9.198;2022-09-13T04:44:15;14.60;99.90
8595;DHT22;4335;48.860;9.198;2022-09-13T04:46:48;14.60;99.90
8595;DHT22;4335;48.860;9.198;2022-09-13T04:49:16;14.70;99.90
8595;DHT22;4335;48.860;9.198;2022-09-13T04:51:45;14.70;99.90
8595;DHT22;4335;48.860;9.198;2022-09-13T04:54:12;14.70;99.90
8595;DHT22;4335;48.860;9.198;2022-09-13T04:56:48;14.80;99.90
8595;DHT22;4335;48.860;9.198;2022-09-13T04:59:15;14.80;99.90
8595;DHT22;4335;48.860;9.198;2022-09-13T05:01:57;14.90;99.90
8595;DHT22;4335;48.860;9.198;2022-09-13T05:04:27;15.00;99.90
8595;DHT22;4335;48.860;9.198;2022-09-13T05:06:53;15.00;99.90
8595;DHT22;4335;48.860;9.198;2022-09-13T05:09:26;15.10;99.90
8595;DHT22;4335;48.860;9.198;2022-09-13T05:11:54;15.20;99.90
8595;DHT22;4335;48.860;9.198;2022-09-13T05:14:21;15.20;99.90
8595;DHT22;4335;48.860;9.198;2022-09-13T05:16:47;15.30;99.90
8595;DHT22;4335;48.860;9.198;2022-09-13T05:19:14;15.40;99.90
8595;DHT22;4335;48.860;9.198;2022-09-13T05:21:41;15.50;99.90
8595;DHT22;4335;48.860;9.198;2022-09-13T05:24:08;15.70;99.90
8595;DHT22;4335;48.860;9.198;2022-09-13T05:26:34;15.80;99.90
8595;DHT22;4335;48.860;9.198;2022-09-13T05:29:03;16.20;99.90
8595;DHT22;4335;48.860;9.198;2022-09-13T05:31:32;16.50;99.90
8595;DHT22;4335;48.860;9.198;2022-09-13T05:34:00;16.80;99.90
8595;DHT22;4335;48.860;9.198;2022-09-13T05:36:28;17.00;99.90
8595;DHT22;4335;48.860;9.198;2022-09-13T05:38:58;17.00;99.90
8595;DHT22;4335;48.860;9.198;2022-09-13T05:41:25;16.90;99.90
8595;DHT22;4335;48.860;9.198;2022-09-13T05:43:58;16.90;99.90
8595;DHT22;4335;48.860;9.198;2022-09-13T05:46:26;16.80;99.90
8595;DHT22;4335;48.860;9.198;2022-09-13T05:48:57;16.70;99.90
8595;DHT22;4335;48.860;9.198;2022-09-13T05:51:26;16.60;99.90
8595;DHT22;4335;48.860;9.198;2022-09-13T05:53:53;16.60;99.90
8595;DHT22;4335;48.860;9.198;2022-09-13T05:56:25;16.50;99.90
8595;DHT22;4335;48.860;9.198;2022-09-13T05:58:53;16.50;99.90
8595;DHT22;4335;48.860;9.198;2022-09-13T06:01:24;16.40;99.90
8595;DHT22;4335;48.860;9.198;2022-09-13T06:03:54;16.50;99.90
8595;DHT22;4335;48.860;9.198;2022-09-13T06:06:21;16.60;99.90
8595;DHT22;4335;48.860;9.198;2022-09-13T06:08:51;16.70;99.90
8595;DHT22;4335;48.860;9.198;2022-09-13T06:11:18;16.80;99.90
8595;DHT22;4335;48.860;9.198;2022-09-13T06:13:47;17.00;99.90
8595;DHT22;4335;48.860;9.198;2022-09-13T06:16:14;17.30;99.90
8595;DHT22;4335;48.860;9.198;2022-09-13T06:18:44;17.60;99.90
8595;DHT22;4335;48.860;9.198;2022-09-13T06:21:17;17.90;99.90
8595;DHT22;4335;48.860;9.198;2022-09-13T06:23:45;18.00;99.90
8595;DHT22;4335;48.860;9.198;2022-09-13T06:26:13;18.00;99.90
8595;DHT22;4335;48.860;9.198;2022-09-13T06:28:39;17.90;99.90
8595;DHT22;4335;48.860;9.198;2022-09-13T06:31:08;17.80;99.90
8595;DHT22;4335;48.860;9.198;2022-09-13T06:33:37;17.60;99.90
8595;DHT22;4335;48.860;9.198;2022-09-13T06:36:06;17.50;99.90
8595;DHT22;4335;48.860;9.198;2022-09-13T06:38:38;17.40;99.90
8595;DHT22;4335;48.860;9.198;2022-09-13T06:41:06;17.30;99.90
8595;DHT22;4335;48.860;9.198;2022-09-13T06:43:33;17.30;99.90
8595;DHT22;4335;48.860;9.198;2022-09-13T06:46:04;17.30;99.90
8595;DHT22;4335;48.860;9.198;2022-09-13T06:48:32;17.60;99.90
8595;DHT22;4335;48.860;9.198;2022-09-13T06:50:59;18.30;99.90
8595;DHT22;4335;48.860;9.198;2022-09-13T06:53:29;19.00;99.90
8595;DHT22;4335;48.860;9.198;2022-09-13T06:56:01;19.40;99.90
8595;DHT22;4335;48.860;9.198;2022-09-13T06:58:28;19.60;99.90
8595;DHT22;4335;48.860;9.198;2022-09-13T07:01:05;19.40;99.90
8595;DHT22;4335;48.860;9.198;2022-09-13T07:03:39;19.30;99.90
8595;DHT22;4335;48.860;9.198;2022-09-13T07:06:07;19.10;99.90
8595;DHT22;4335;48.860;9.198;2022-09-13T07:08:34;19.00;99.90
8595;DHT22;4335;48.860;9.198;2022-09-13T07:11:01;18.80;99.90
8595;DHT22;4335;48.860;9.198;2022-09-13T07:13:38;18.90;99.90
8595;DHT22;4335;48.860;9.198;2022-09-13T07:16:06;18.80;99.90
8595;DHT22;4335;48.860;9.198;2022-09-13T07:18:33;18.90;99.90
8595;DHT22;4335;48.860;9.198;2022-09-13T07:21:01;18.90;99.90
8595;DHT22;4335;48.860;9.198;2022-09-13T07:23:30;19.00;99.90
8595;DHT22;4335;48.860;9.198;2022-09-13T07:25:56;19.20;99.90
8595;DHT22;4335;48.860;9.198;2022-09-13T07:28:29;19.30;99.90
8595;DHT22;4335;48.860;9.198;2022-09-13T07:30:57;19.30;99.90
8595;DHT22;4335;48.860;9.198;2022-09-13T07:33:29;19.30;99.90
8595;DHT22;4335;48.860;9.198;2022-09-13T07:35:56;19.40;99.90
8595;DHT22;4335;48.860;9.198;2022-09-13T07:38:27;19.40;99.90
8595;DHT22;4335;48.860;9.198;2022-09-13T07:40:58;19.60;99.90
8595;DHT22;4335;48.860;9.198;2022-09-13T07:43:32;19.60;99.90
8595;DHT22;4335;48.860;9.198;2022-09-13T07:46:00;19.70;99.90
8595;DHT22;4335;48.860;9.198;2022-09-13T07:48:29;19.80;99.90
8595;DHT22;4335;48.860;9.198;2022-09-13T07:50:59;19.90;99.90
8595;DHT22;4335;48.860;9.198;2022-09-13T07:53:27;20.10;99.90
8595;DHT22;4335;48.860;9.198;2022-09-13T07:55:59;20.30;99.90
8595;DHT22;4335;48.860;9.198;2022-09-13T07:58:29;20.50;99.90
8595;DHT22;4335;48.860;9.198;2022-09-13T08:01:04;20.70;99.90
8595;DHT22;4335;48.860;9.198;2022-09-13T08:03:39;20.90;99.90
8595;DHT22;4335;48.860;9.198;2022-09-13T08:06:07;21.00;99.90
8595;DHT22;4335;48.860;9.198;2022-09-13T08:08:35;21.20;99.90
8595;DHT22;4335;48.860;9.198;2022-09-13T08:11:04;21.40;99.90
8595;DHT22;4335;48.860;9.198;2022-09-13T08:13:31;21.50;99.90
8595;DHT22;4335;48.860;9.198;2022-09-13T08:16:02;21.70;99.90
8595;DHT22;4335;48.860;9.198;2022-09-13T08:18:35;21.70;99.90
8595;DHT22;4335;48.860;9.198;2022-09-13T08:21:02;21.80;99.90
8595;DHT22;4335;48.860;9.198;2022-09-13T08:23:29;22.00;99.90
8595;DHT22;4335;48.860;9.198;2022-09-13T08:26:00;22.20;99.90
8595;DHT22;4335;48.860;9.198;2022-09-13T08:28:30;22.20;99.90
8595;DHT22;4335;48.860;9.198;2022-09-13T08:31:05;22.40;99.90
8595;DHT22;4335;48.860;9.198;2022-09-13T08:33:32;22.50;99.90
8595;DHT22;4335;48.860;9.198;2022-09-13T08:36:03;22.70;99.90
8595;DHT22;4335;48.860;9.198;2022-09-13T08:38:38;22.80;99.90
8595;DHT22;4335;48.860;9.198;2022-09-13T08:41:23;22.80;99.90
8595;DHT22;4335;48.860;9.198;2022-09-13T08:43:58;22.80;99.90
8595;DHT22;4335;48.860;9.198;2022-09-13T08:46:30;22.80;99.90
8595;DHT22;4335;48.860;9.198;2022-09-13T08:49:00;23.00;99.90
8595;DHT22;4335;48.860;9.198;2022-09-13T08:51:31;23.10;99.90
8595;DHT22;4335;48.860;9.198;2022-09-13T08:54:00;23.20;99.90
8595;DHT22;4335;48.860;9.198;2022-09-13T08:56:34;23.40;99.90
8595;DHT22;4335;48.860;9.198;2022-09-13T08:59:25;23.50;99.90
8595;DHT22;4335;48.860;9.198;2022-09-13T09:02:02;23.70;99.90
8595;DHT22;4335;48.860;9.198;2022-09-13T09:04:38;23.90;99.90
8595;DHT22;4335;48.860;9.198;2022-09-13T09:07:11;24.20;99.90
8595;DHT22;4335;48.860;9.198;2022-09-13T09:09:42;24.20;99.90
8595;DHT22;4335;48.860;9.198;2022-09-13T09:12:15;24.30;99.90
8595;DHT22;4335;48.860;9.198;2022-09-13T09:14:45;24.20;99.90
8595;DHT22;4335;48.860;9.198;2022-09-13T09:17:18;24.20;99.90
8595;DHT22;4335;48.860;9.198;2022-09-13T09:19:49;24.20;99.90
8595;DHT22;4335;48.860;9.198;2022-09-13T09:22:19;24.20;99.90
8595;DHT22;4335;48.860;9.198;2022-09-13T09:24:49;24.40;99.90
8595;DHT22;4335;48.860;9.198;2022-09-13T09:27:17;24.60;99.90
8595;DHT22;4335;48.860;9.198;2022-09-13T09:29:44;25.10;99.90
8595;DHT22;4335;48.860;9.198;2022-09-13T09:32:24;25.50;99.90
8595;DHT22;4335;48.860;9.198;2022-09-13T09:35:11;25.70;99.90
8595;DHT22;4335;48.860;9.198;2022-09-13T09:37:45;25.90;99.90
8595;DHT22;4335;48.860;9.198;2022-09-13T09:40:15;26.10;99.90
8595;DHT22;4335;48.860;9.198;2022-09-13T09:42:44;26.30;99.90
8595;DHT22;4335;48.860;9.198;2022-09-13T09:45:25;26.20;99.90
8595;DHT22;4335;48.860;9.198;2022-09-13T09:47:54;25.80;99.90
8595;DHT22;4335;48.860;9.198;2022-09-13T09:50:24;25.80;99.90
8595;DHT22;4335;48.860;9.198;2022-09-13T09:52:57;25.70;99.90
8595;DHT22;4335;48.860;9.198;2022-09-13T09:55:26;25.80;99.90
8595;DHT22;4335;48.860;9.198;2022-09-13T09:57:56;25.80;99.90
8595;DHT22;4335;48.860;9.198;2022-09-13T10:00:25;26.00;99.90
8595;DHT22;4335;48.860;9.198;2022-09-13T10:02:56;26.00;99.90
8595;DHT22;4335;48.860;9.198;2022-09-13T10:05:28;26.20;99.90
8595;DHT22;4335;48.860;9.198;2022-09-13T10:07:59;26.30;99.90
8595;DHT22;4335;48.860;9.198;2022-09-13T10:10:33;26.30;99.90
8595;DHT22;4335;48.860;9.198;2022-09-13T10:13:11;27.20;99.90
8595;DHT22;4335;48.860;9.198;2022-09-13T10:15:51;28.40;99.90
8595;DHT22;4335;48.860;9.198;2022-09-13T10:18:21;29.50;98.10
8595;DHT22;4335;48.860;9.198;2022-09-13T10:21:00;30.50;95.60
8595;DHT22;4335;48.860;9.198;2022-09-13T10:23:27;31.40;92.80
8595;DHT22;4335;48.860;9.198;2022-09-13T10:26:06;32.10;90.90
8595;DHT22;4335;48.860;9.198;2022-09-13T10:28:43;33.20;89.00
8595;DHT22;4335;48.860;9.198;2022-09-13T10:31:17;33.80;79.70
8595;DHT22;4335;48.860;9.198;2022-09-13T10:34:03;34.00;75.60
8595;DHT22;4335;48.860;9.198;2022-09-13T10:36:34;35.20;72.90
8595;DHT22;4335;48.860;9.198;2022-09-13T10:39:03;35.60;67.60
8595;DHT22;4335;48.860;9.198;2022-09-13T10:41:40;35.00;65.60
8595;DHT22;4335;48.860;9.198;2022-09-13T10:44:25;35.10;66.20
8595;DHT22;4335;48.860;9.198;2022-09-13T10:46:52;35.10;65.00
8595;DHT22;4335;48.860;9.198;2022-09-13T10:49:37;34.60;65.70
8595;DHT22;4335;48.860;9.198;2022-09-13T10:52:26;34.30;66.70
8595;DHT22;4335;48.860;9.198;2022-09-13T10:54:53;33.30;66.30
8595;DHT22;4335;48.860;9.198;2022-09-13T10:57:34;32.60;67.40
8595;DHT22;4335;48.860;9.198;2022-09-13T11:00:02;31.80;67.80
8595;DHT22;4335;48.860;9.198;2022-09-13T11:02:50;31.10;69.50
8595;DHT22;4335;48.860;9.198;2022-09-13T11:05:23;30.50;71.50
8595;DHT22;4335;48.860;9.198;2022-09-13T11:08:29;30.20;73.30
8595;DHT22;4335;48.860;9.198;2022-09-13T11:11:10;29.80;71.60
8595;DHT22;4335;48.860;9.198;2022-09-13T11:13:45;29.50;73.70
8595;DHT22;4335;48.860;9.198;2022-09-13T11:16:34;29.20;74.30
8595;DHT22;4335;48.860;9.198;2022-09-13T11:19:27;28.90;76.00
8595;DHT22;4335;48.860;9.198;2022-09-13T11:22:18;28.60;77.80
8595;DHT22;4335;48.860;9.198;2022-09-13T11:25:04;28.30;78.30
8595;DHT22;4335;48.860;9.198;2022-09-13T11:27:40;28.20;80.70
8595;DHT22;4335;48.860;9.198;2022-09-13T11:30:16;28.20;77.90
8595;DHT22;4335;48.860;9.198;2022-09-13T11:36:16;27.90;77.80
8595;DHT22;4335;48.860;9.198;2022-09-13T11:38:57;28.00;78.20
8595;DHT22;4335;48.860;9.198;2022-09-13T11:41:35;27.90;77.20
8595;DHT22;4335;48.860;9.198;2022-09-13T11:44:37;27.70;76.30
8595;DHT22;4335;48.860;9.198;2022-09-13T11:47:11;27.60;77.50
8595;DHT22;4335;48.860;9.198;2022-09-13T11:50:04;27.30;78.90
8595;DHT22;4335;48.860;9.198;2022-09-13T11:52:43;27.00;79.90
8595;DHT22;4335;48.860;9.198;2022-09-13T11:55:16;26.80;80.60
8595;DHT22;4335;48.860;9.198;2022-09-13T11:57:45;26.70;83.50
8595;DHT22;4335;48.860;9.198;2022-09-13T12:00:19;26.60;83.10
8595;DHT22;4335;48.860;9.198;2022-09-13T12:02:54;26.60;83.40
8595;DHT22;4335;48.860;9.198;2022-09-13T12:05:26;26.60;83.00
8595;DHT22;4335;48.860;9.198;2022-09-13T12:07:58;26.60;84.50
8595;DHT22;4335;48.860;9.198;2022-09-13T12:10:29;26.60;86.70
8595;DHT22;4335;48.860;9.198;2022-09-13T12:12:58;26.80;87.00
8595;DHT22;4335;48.860;9.198;2022-09-13T12:15:31;26.80;84.80
8595;DHT22;4335;48.860;9.198;2022-09-13T12:18:05;26.90;80.80
8595;DHT22;4335;48.860;9.198;2022-09-13T12:20:37;26.90;80.10
8595;DHT22;4335;48.860;9.198;2022-09-13T12:23:15;26.90;81.90
8595;DHT22;4335;48.860;9.198;2022-09-13T12:25:48;26.90;79.60
8595;DHT22;4335;48.860;9.198;2022-09-13T12:28:20;26.90;77.90
8595;DHT22;4335;48.860;9.198;2022-09-13T12:30:57;26.80;78.40
8595;DHT22;4335;48.860;9.198;2022-09-13T12:33:27;26.80;77.70
8595;DHT22;4335;48.860;9.198;2022-09-13T12:36:15;26.80;80.00
8595;DHT22;4335;48.860;9.198;2022-09-13T12:39:21;26.80;76.80
8595;DHT22;4335;48.860;9.198;2022-09-13T12:42:11;26.90;75.90
8595;DHT22;4335;48.860;9.198;2022-09-13T12:44:55;26.90;77.80
8595;DHT22;4335;48.860;9.198;2022-09-13T12:47:49;26.90;77.90
8595;DHT22;4335;48.860;9.198;2022-09-13T12:50:34;26.90;78.00
8595;DHT22;4335;48.860;9.198;2022-09-13T12:53:12;26.90;81.10
8595;DHT22;4335;48.860;9.198;2022-09-13T12:58:45;26.90;77.40
8595;DHT22;4335;48.860;9.198;2022-09-13T13:01:15;26.80;77.40
8595;DHT22;4335;48.860;9.198;2022-09-13T13:03:47;26.80;77.70
8595;DHT22;4335;48.860;9.198;2022-09-13T13:06:29;26.60;78.00
8595;DHT22;4335;48.860;9.198;2022-09-13T13:09:02;26.50;79.50
8595;DHT22;4335;48.860;9.198;2022-09-13T13:11:41;26.50;77.80
8595;DHT22;4335;48.860;9.198;2022-09-13T13:14:42;26.60;77.00
8595;DHT22;4335;48.860;9.198;2022-09-13T13:17:34;26.50;77.00
8595;DHT22;4335;48.860;9.198;2022-09-13T13:23:03;26.60;79.60
8595;DHT22;4335;48.860;9.198;2022-09-13T13:25:33;26.50;78.60
8595;DHT22;4335;48.860;9.198;2022-09-13T13:28:01;26.50;78.60
8595;DHT22;4335;48.860;9.198;2022-09-13T13:30:49;26.50;79.90
8595;DHT22;4335;48.860;9.198;2022-09-13T13:33:20;26.50;81.00
8595;DHT22;4335;48.860;9.198;2022-09-13T13:35:49;26.50;79.30
8595;DHT22;4335;48.860;9.198;2022-09-13T13:41:38;26.60;76.50
8595;DHT22;4335;48.860;9.198;2022-09-13T13:50:29;26.80;76.50
8595;DHT22;4335;48.860;9.198;2022-09-13T13:53:18;26.80;76.60
8595;DHT22;4335;48.860;9.198;2022-09-13T13:55:46;26.80;76.60
8595;DHT22;4335;48.860;9.198;2022-09-13T13:58:35;26.60;79.40
8595;DHT22;4335;48.860;9.198;2022-09-13T14:01:03;26.50;76.80
8595;DHT22;4335;48.860;9.198;2022-09-13T14:03:48;26.50;78.30
8595;DHT22;4335;48.860;9.198;2022-09-13T14:06:20;26.40;76.50
8595;DHT22;4335;48.860;9.198;2022-09-13T14:09:02;26.40;75.30
8595;DHT22;4335;48.860;9.198;2022-09-13T14:11:43;26.40;73.30
8595;DHT22;4335;48.860;9.198;2022-09-13T14:17:34;26.40;73.90
8595;DHT22;4335;48.860;9.198;2022-09-13T14:20:08;26.40;73.70
8595;DHT22;4335;48.860;9.198;2022-09-13T14:22:37;26.40;71.20
8595;DHT22;4335;48.860;9.198;2022-09-13T14:25:17;26.50;70.60
8595;DHT22;4335;48.860;9.198;2022-09-13T14:27:51;26.50;71.70
8595;DHT22;4335;48.860;9.198;2022-09-13T14:30:33;26.50;72.80
8595;DHT22;4335;48.860;9.198;2022-09-13T14:33:04;26.50;71.80
8595;DHT22;4335;48.860;9.198;2022-09-13T14:35:32;26.60;69.70
8595;DHT22;4335;48.860;9.198;2022-09-13T14:38:11;26.50;71.30
8595;DHT22;4335;48.860;9.198;2022-09-13T14:40:41;26.40;71.90
8595;DHT22;4335;48.860;9.198;2022-09-13T14:43:16;26.50;70.00
8595;DHT22;4335;48.860;9.198;2022-09-13T14:45:48;26.60;69.30
8595;DHT22;4335;48.860;9.198;2022-09-13T14:48:18;26.60;69.40
8595;DHT22;4335;48.860;9.198;2022-09-13T14:50:49;26.50;70.60
8595;DHT22;4335;48.860;9.198;2022-09-13T14:53:20;26.30;72.00
8595;DHT22;4335;48.860;9.198;2022-09-13T14:55:59;26.30;70.60
8595;DHT22;4335;48.860;9.198;2022-09-13T14:58:31;26.50;67.40
8595;DHT22;4335;48.860;9.198;2022-09-13T15:01:04;26.40;70.50
8595;DHT22;4335;48.860;9.198;2022-09-13T15:03:33;26.40;70.40
8595;DHT22;4335;48.860;9.198;2022-09-13T15:06:02;26.40;65.40
8595;DHT22;4335;48.860;9.198;2022-09-13T15:08:43;26.50;65.60
8595;DHT22;4335;48.860;9.198;2022-09-13T15:11:15;26.50;64.90
8595;DHT22;4335;48.860;9.198;2022-09-13T15:14:01;26.50;64.30
8595;DHT22;4335;48.860;9.198;2022-09-13T15:16:31;26.40;66.60
8595;DHT22;4335;48.860;9.198;2022-09-13T15:19:29;26.40;66.30
8595;DHT22;4335;48.860;9.198;2022-09-13T15:22:04;26.40;66.70
8595;DHT22;4335;48.860;9.198;2022-09-13T15:24:33;26.30;67.50
8595;DHT22;4335;48.860;9.198;2022-09-13T15:27:13;26.30;67.30
8595;DHT22;4335;48.860;9.198;2022-09-13T15:29:47;26.20;68.00
8595;DHT22;4335;48.860;9.198;2022-09-13T15:32:30;26.20;69.00
8595;DHT22;4335;48.860;9.198;2022-09-13T15:34:58;26.10;69.40
8595;DHT22;4335;48.860;9.198;2022-09-13T15:37:31;26.20;70.40
8595;DHT22;4335;48.860;9.198;2022-09-13T15:40:12;26.10;70.90
8595;DHT22;4335;48.860;9.198;2022-09-13T15:42:39;26.00;71.70
8595;DHT22;4335;48.860;9.198;2022-09-13T15:45:06;26.00;72.10
8595;DHT22;4335;48.860;9.198;2022-09-13T15:47:36;26.00;72.00
8595;DHT22;4335;48.860;9.198;2022-09-13T15:50:04;26.00;72.40
8595;DHT22;4335;48.860;9.198;2022-09-13T15:52:33;26.00;72.60
8595;DHT22;4335;48.860;9.198;2022-09-13T15:55:04;26.00;72.70
8595;DHT22;4335;48.860;9.198;2022-09-13T15:57:31;26.00;73.20
8595;DHT22;4335;48.860;9.198;2022-09-13T15:59:58;26.00;74.00
8595;DHT22;4335;48.860;9.198;2022-09-13T16:02:30;26.00;74.30
8595;DHT22;4335;48.860;9.198;2022-09-13T16:04:58;26.00;75.10
8595;DHT22;4335;48.860;9.198;2022-09-13T16:07:25;25.90;76.50
8595;DHT22;4335;48.860;9.198;2022-09-13T16:09:54;25.90;77.30
8595;DHT22;4335;48.860;9.198;2022-09-13T16:12:22;25.90;78.10
8595;DHT22;4335;48.860;9.198;2022-09-13T16:14:49;25.80;79.30
8595;DHT22;4335;48.860;9.198;2022-09-13T16:17:19;25.80;80.10
8595;DHT22;4335;48.860;9.198;2022-09-13T16:19:46;25.70;81.40
8595;DHT22;4335;48.860;9.198;2022-09-13T16:22:22;25.70;82.60
8595;DHT22;4335;48.860;9.198;2022-09-13T16:24:51;25.60;83.70
8595;DHT22;4335;48.860;9.198;2022-09-13T16:27:19;25.60;84.60
8595;DHT22;4335;48.860;9.198;2022-09-13T16:29:47;25.50;85.30
8595;DHT22;4335;48.860;9.198;2022-09-13T16:32:21;25.50;85.80
8595;DHT22;4335;48.860;9.198;2022-09-13T16:34:48;25.50;86.50
8595;DHT22;4335;48.860;9.198;2022-09-13T16:37:18;25.40;87.00
8595;DHT22;4335;48.860;9.198;2022-09-13T16:39:48;25.40;87.50
8595;DHT22;4335;48.860;9.198;2022-09-13T16:42:15;25.40;88.10
8595;DHT22;4335;48.860;9.198;2022-09-13T16:44:52;25.30;88.50
8595;DHT22;4335;48.860;9.198;2022-09-13T16:47:28;25.30;88.70
8595;DHT22;4335;48.860;9.198;2022-09-13T16:49:57;25.20;89.10
8595;DHT22;4335;48.860;9.198;2022-09-13T16:52:25;25.20;89.30
8595;DHT22;4335;48.860;9.198;2022-09-13T16:54:52;25.20;89.70
8595;DHT22;4335;48.860;9.198;2022-09-13T16:57:18;25.10;90.10
8595;DHT22;4335;48.860;9.198;2022-09-13T16:59:46;25.10;90.50
8595;DHT22;4335;48.860;9.198;2022-09-13T17:02:16;25.00;90.70
8595;DHT22;4335;48.860;9.198;2022-09-13T17:04:43;25.00;90.90
8595;DHT22;4335;48.860;9.198;2022-09-13T17:07:09;25.00;91.20
8595;DHT22;4335;48.860;9.198;2022-09-13T17:09:36;25.00;91.30
8595;DHT22;4335;48.860;9.198;2022-09-13T17:12:06;25.00;91.40